createdAt,value
2022-08-28T00:00:35.374Z,25.97
2022-08-28T00:03:43.323Z,25.97
2022-08-28T00:06:45.989Z,26.01
2022-08-28T00:09:51.530Z,26.05
2022-08-28T00:12:57.422Z,26.15
2022-08-28T00:16:01.109Z,26.19
2022-08-28T00:19:04.013Z,26.12
2022-08-28T00:22:07.399Z,26.03
2022-08-28T00:25:11.566Z,25.98
2022-08-28T00:28:23.728Z,25.93
2022-08-28T00:31:27.231Z,25.86
2022-08-28T00:34:33.268Z,25.84
2022-08-28T00:37:35.823Z,25.85
2022-08-28T00:40:39.498Z,25.77
2022-08-28T00:43:44.324Z,25.66
2022-08-28T00:46:48.736Z,25.59
2022-08-28T00:49:52.920Z,25.59
2022-08-28T00:53:00.079Z,25.50
2022-08-28T00:56:05.179Z,25.51
2022-08-28T00:59:16.307Z,25.48
2022-08-28T01:02:18.945Z,25.43
2022-08-28T01:05:22.120Z,25.36
2022-08-28T01:08:24.429Z,25.30
2022-08-28T01:11:28.992Z,25.27
2022-08-28T01:14:32.387Z,25.25
2022-08-28T01:17:35.567Z,25.23
2022-08-28T01:20:41.842Z,25.26
2022-08-28T01:23:49.492Z,25.27
2022-08-28T01:26:51.758Z,25.10
2022-08-28T01:29:55.329Z,25.14
2022-08-28T01:32:58.139Z,25.02
2022-08-28T01:36:00.991Z,25.07
2022-08-28T01:39:05.664Z,25.03
2022-08-28T01:42:08.371Z,24.88
2022-08-28T01:45:14.542Z,24.87
2022-08-28T01:48:17.456Z,24.80
2022-08-28T01:51:24.393Z,24.69
2022-08-28T01:54:28.848Z,24.70
2022-08-28T01:57:31.149Z,24.60
2022-08-28T02:00:34.127Z,24.61
2022-08-28T02:03:36.718Z,24.64
2022-08-28T02:06:39.154Z,24.39
2022-08-28T02:09:41.887Z,24.28
2022-08-28T02:12:44.650Z,24.33
2022-08-28T02:15:47.299Z,24.29
2022-08-28T02:18:50.026Z,24.27
2022-08-28T02:21:52.520Z,24.28
2022-08-28T02:24:55.018Z,24.21
2022-08-28T02:27:57.596Z,24.15
2022-08-28T02:31:00.082Z,24.16
2022-08-28T02:34:02.943Z,24.15
2022-08-28T02:37:07.959Z,24.09
2022-08-28T02:40:14.301Z,24.04
2022-08-28T02:43:17.317Z,24.05
2022-08-28T02:46:20.007Z,24.02
2022-08-28T02:49:23.947Z,23.99
2022-08-28T02:52:27.053Z,23.97
2022-08-28T02:55:34.004Z,23.95
2022-08-28T02:58:36.825Z,23.92
2022-08-28T03:01:39.399Z,23.98
2022-08-28T03:04:42.033Z,23.96
2022-08-28T03:07:44.578Z,23.89
2022-08-28T03:10:47.064Z,23.85
2022-08-28T03:13:52.992Z,23.80
2022-08-28T03:16:55.834Z,23.85
2022-08-28T03:19:59.050Z,23.86
2022-08-28T03:23:20.454Z,23.88
2022-08-28T03:26:24.056Z,23.88
2022-08-28T03:29:29.171Z,23.82
2022-08-28T03:32:31.785Z,23.77
2022-08-28T03:35:34.278Z,23.78
2022-08-28T03:38:36.752Z,23.82
2022-08-28T03:41:39.859Z,23.78
2022-08-28T03:44:42.267Z,23.72
2022-08-28T03:47:44.722Z,23.68
2022-08-28T03:50:47.826Z,23.74
2022-08-28T03:53:51.765Z,23.67
2022-08-28T03:56:54.201Z,23.70
2022-08-28T03:59:56.770Z,23.60
2022-08-28T04:02:59.184Z,23.53
2022-08-28T04:06:01.987Z,23.54
2022-08-28T04:09:04.734Z,23.51
2022-08-28T04:12:07.730Z,23.46
2022-08-28T04:15:11.041Z,23.38
2022-08-28T04:18:13.893Z,23.29
2022-08-28T04:21:18.290Z,23.30
2022-08-28T04:24:20.798Z,23.30
2022-08-28T04:27:23.231Z,23.35
2022-08-28T04:30:25.740Z,23.44
2022-08-28T04:33:28.934Z,23.49
2022-08-28T04:36:33.595Z,23.46
2022-08-28T04:39:36.100Z,23.47
2022-08-28T04:42:39.996Z,23.47
2022-08-28T04:45:43.480Z,23.45
2022-08-28T04:48:46.020Z,23.43
2022-08-28T04:51:48.532Z,23.56
2022-08-28T04:54:51.052Z,23.65
2022-08-28T04:57:53.580Z,23.75
2022-08-28T05:00:56.552Z,23.78
2022-08-28T05:04:00.865Z,23.83
2022-08-28T05:07:03.526Z,23.87
2022-08-28T05:10:06.162Z,23.95
2022-08-28T05:13:09.665Z,23.95
2022-08-28T05:16:15.578Z,24.03
2022-08-28T05:19:19.416Z,24.12
2022-08-28T05:22:21.885Z,24.19
2022-08-28T05:25:24.383Z,24.27
2022-08-28T05:28:27.164Z,24.37
2022-08-28T05:31:30.789Z,24.51
2022-08-28T05:34:33.270Z,24.49
2022-08-28T05:37:35.809Z,24.57
2022-08-28T05:40:43.385Z,24.70
2022-08-28T05:43:45.885Z,24.84
2022-08-28T05:46:49.274Z,24.84
2022-08-28T05:49:52.529Z,24.86
2022-08-28T05:52:54.996Z,24.87
2022-08-28T05:55:57.491Z,24.83
2022-08-28T05:59:00.704Z,24.80
2022-08-28T06:02:05.575Z,24.74
2022-08-28T06:05:09.053Z,24.86
2022-08-28T06:08:15.811Z,24.95
2022-08-28T06:11:21.806Z,25.01
2022-08-28T06:14:27.126Z,25.08
2022-08-28T06:17:31.083Z,25.15
2022-08-28T06:20:37.376Z,25.19
2022-08-28T06:23:41.139Z,25.35
2022-08-28T06:26:43.720Z,25.45
2022-08-28T06:29:46.602Z,25.51
2022-08-28T06:32:48.796Z,25.64
2022-08-28T06:35:52.720Z,25.78
2022-08-28T06:38:55.642Z,25.87
2022-08-28T06:41:58.401Z,26.02
2022-08-28T06:45:01.011Z,26.25
2022-08-28T06:48:03.860Z,26.52
2022-08-28T06:51:07.164Z,26.76
2022-08-28T06:54:10.348Z,26.99
2022-08-28T06:57:12.595Z,27.30
2022-08-28T07:00:15.579Z,27.73
2022-08-28T07:03:18.060Z,28.05
2022-08-28T07:06:21.671Z,28.41
2022-08-28T07:09:24.391Z,28.74
2022-08-28T07:12:27.118Z,28.93
2022-08-28T07:15:29.435Z,29.35
2022-08-28T07:18:32.193Z,29.61
2022-08-28T07:21:38.650Z,29.73
2022-08-28T07:24:42.165Z,30.00
2022-08-28T07:27:44.377Z,30.35
2022-08-28T07:30:55.679Z,30.76
2022-08-28T07:33:58.261Z,30.98
2022-08-28T07:37:04.266Z,31.14
2022-08-28T07:40:10.051Z,31.10
2022-08-28T07:43:32.710Z,30.91
2022-08-28T07:46:35.483Z,31.17
2022-08-28T07:49:39.153Z,31.51
2022-08-28T07:52:41.403Z,31.61
2022-08-28T07:55:44.095Z,31.93
2022-08-28T07:58:46.748Z,32.38
2022-08-28T08:01:50.853Z,32.67
2022-08-28T08:04:53.658Z,32.72
2022-08-28T08:07:56.067Z,32.21
2022-08-28T08:11:00.286Z,31.53
2022-08-28T08:14:05.614Z,30.97
2022-08-28T08:17:08.787Z,31.68
2022-08-28T08:20:11.492Z,32.83
2022-08-28T08:23:14.068Z,33.62
2022-08-28T08:26:18.273Z,34.13
2022-08-28T08:29:21.102Z,34.61
2022-08-28T08:32:23.750Z,34.57
2022-08-28T08:35:26.343Z,35.01
2022-08-28T08:38:30.015Z,35.51
2022-08-28T08:41:34.952Z,35.36
2022-08-28T08:44:42.090Z,35.52
2022-08-28T08:47:50.064Z,35.95
2022-08-28T08:50:53.695Z,36.32
2022-08-28T08:54:08.611Z,36.79
2022-08-28T08:57:13.018Z,37.13
2022-08-28T09:00:16.167Z,37.76
2022-08-28T09:03:22.991Z,38.10
2022-08-28T09:06:44.719Z,38.63
2022-08-28T09:09:50.045Z,39.42
2022-08-28T09:12:56.579Z,39.70
2022-08-28T09:16:00.177Z,39.84
2022-08-28T09:19:03.049Z,40.16
2022-08-28T09:22:05.483Z,40.67
2022-08-28T09:25:09.398Z,41.10
2022-08-28T09:28:15.723Z,41.61
2022-08-28T09:31:33.537Z,42.13
2022-08-28T09:34:38.960Z,42.53
2022-08-28T09:37:42.855Z,42.88
2022-08-28T09:41:04.107Z,43.20
2022-08-28T09:44:06.676Z,43.79
2022-08-28T09:47:09.080Z,44.04
2022-08-28T09:50:29.731Z,44.30
2022-08-28T09:53:34.176Z,44.01
2022-08-28T09:56:39.355Z,43.68
2022-08-28T09:59:42.248Z,43.64
2022-08-28T10:02:58.234Z,43.53
2022-08-28T10:06:20.019Z,43.27
2022-08-28T10:09:28.456Z,42.99
2022-08-28T10:12:50.303Z,42.92
2022-08-28T10:15:52.556Z,41.81
2022-08-28T10:19:05.832Z,41.74
2022-08-28T10:22:08.283Z,41.80
2022-08-28T10:25:14.070Z,40.62
2022-08-28T10:28:25.561Z,40.63
2022-08-28T10:31:47.497Z,40.59
2022-08-28T10:34:49.858Z,39.97
2022-08-28T10:38:16.340Z,39.73
2022-08-28T10:41:25.090Z,39.67
2022-08-28T10:44:32.948Z,40.38
2022-08-28T10:47:38.325Z,40.34
2022-08-28T10:50:47.160Z,40.00
2022-08-28T10:53:55.545Z,39.58
2022-08-28T10:57:05.792Z,39.42
2022-08-28T11:00:13.785Z,39.79
2022-08-28T11:03:34.036Z,40.51
2022-08-28T11:06:41.698Z,41.01
2022-08-28T11:09:47.753Z,41.66
2022-08-28T11:12:51.828Z,42.17
2022-08-28T11:15:54.751Z,42.32
2022-08-28T11:19:14.408Z,42.02
2022-08-28T11:22:28.418Z,41.00
2022-08-28T11:25:45.406Z,40.11
2022-08-28T11:28:49.917Z,39.73
2022-08-28T11:32:12.072Z,39.62
2022-08-28T11:35:21.018Z,39.26
2022-08-28T11:38:41.897Z,39.61
2022-08-28T11:42:03.308Z,39.87
2022-08-28T11:45:07.271Z,39.63
2022-08-28T11:48:30.155Z,39.76
2022-08-28T11:51:35.349Z,39.86
2022-08-28T11:54:45.591Z,38.96
2022-08-28T12:01:09.590Z,37.99
2022-08-28T12:04:17.617Z,37.22
2022-08-28T12:07:22.029Z,36.50
2022-08-28T12:10:24.651Z,35.56
2022-08-28T12:13:45.664Z,35.45
2022-08-28T12:17:03.696Z,36.08
2022-08-28T12:20:18.557Z,36.75
2022-08-28T12:23:24.037Z,37.52
2022-08-28T12:26:32.025Z,38.23
2022-08-28T12:29:49.149Z,38.67
2022-08-28T12:32:56.831Z,38.95
2022-08-28T12:36:00.902Z,39.21
2022-08-28T12:39:03.574Z,39.24
2022-08-28T12:42:14.729Z,39.30
2022-08-28T12:45:27.933Z,39.36
2022-08-28T12:48:35.039Z,39.25
2022-08-28T12:51:37.698Z,39.10
2022-08-28T12:54:40.589Z,39.02
2022-08-28T12:57:46.851Z,38.96
2022-08-28T13:00:55.740Z,38.51
2022-08-28T13:04:01.363Z,37.81
2022-08-28T13:07:24.100Z,37.19
2022-08-28T13:10:31.832Z,36.73
2022-08-28T13:13:37.148Z,36.38
2022-08-28T13:16:41.757Z,35.97
2022-08-28T13:19:44.382Z,35.58
2022-08-28T13:22:50.862Z,35.24
2022-08-28T13:26:03.070Z,34.88
2022-08-28T13:29:35.210Z,34.85
2022-08-28T13:32:39.073Z,34.84
2022-08-28T13:35:42.129Z,35.20
2022-08-28T13:38:44.940Z,35.54
2022-08-28T13:41:49.225Z,35.57
2022-08-28T13:44:55.259Z,35.56
2022-08-28T13:47:57.686Z,35.78
2022-08-28T13:51:03.109Z,36.02
2022-08-28T13:54:07.574Z,36.10
2022-08-28T13:57:11.345Z,36.13
2022-08-28T14:00:14.190Z,36.18
2022-08-28T14:03:35.849Z,36.07
2022-08-28T14:06:38.546Z,35.96
2022-08-28T14:09:41.146Z,35.89
2022-08-28T14:12:46.748Z,35.74
2022-08-28T14:15:49.593Z,35.74
2022-08-28T14:18:52.892Z,35.59
2022-08-28T14:21:56.002Z,35.43
2022-08-28T14:24:58.451Z,35.38
2022-08-28T14:28:01.547Z,35.42
2022-08-28T14:31:05.164Z,35.28
2022-08-28T14:34:09.028Z,35.24
2022-08-28T14:37:11.707Z,35.24
2022-08-28T14:40:14.310Z,35.20
2022-08-28T14:43:16.897Z,34.99
2022-08-28T14:46:24.971Z,34.77
2022-08-28T14:49:28.279Z,34.65
2022-08-28T14:52:30.789Z,34.53
2022-08-28T14:55:38.413Z,34.20
2022-08-28T14:58:41.408Z,34.07
2022-08-28T15:01:44.970Z,33.92
2022-08-28T15:04:47.685Z,33.72
2022-08-28T15:07:50.126Z,33.52
2022-08-28T15:10:52.629Z,33.34
2022-08-28T15:13:55.591Z,33.12
2022-08-28T15:16:58.371Z,33.03
2022-08-28T15:20:01.165Z,32.82
2022-08-28T15:23:03.743Z,32.70
2022-08-28T15:26:06.185Z,32.65
2022-08-28T15:29:10.790Z,32.53
2022-08-28T15:32:13.301Z,32.40
2022-08-28T15:35:16.791Z,32.34
2022-08-28T15:38:19.259Z,32.11
2022-08-28T15:41:25.073Z,32.03
2022-08-28T15:44:28.155Z,31.94
2022-08-28T15:47:30.774Z,31.83
2022-08-28T15:50:33.213Z,31.70
2022-08-28T15:53:35.761Z,31.63
2022-08-28T15:56:38.639Z,31.53
2022-08-28T15:59:50.064Z,31.32
2022-08-28T16:02:59.756Z,31.23
2022-08-28T16:06:02.738Z,31.02
2022-08-28T16:09:06.155Z,30.91
2022-08-28T16:12:10.898Z,30.81
2022-08-28T16:15:14.106Z,30.62
2022-08-28T16:18:22.098Z,30.47
2022-08-28T16:21:28.036Z,30.31
2022-08-28T16:24:31.005Z,30.13
2022-08-28T16:27:34.001Z,30.04
2022-08-28T16:30:37.811Z,30.03
2022-08-28T16:33:46.594Z,29.88
2022-08-28T16:36:50.355Z,29.85
2022-08-28T16:39:54.622Z,29.63
2022-08-28T16:42:57.164Z,29.53
2022-08-28T16:45:59.801Z,29.47
2022-08-28T16:49:02.593Z,29.46
2022-08-28T16:52:05.215Z,29.35
2022-08-28T16:55:09.277Z,29.32
2022-08-28T16:58:16.742Z,29.27
2022-08-28T17:01:21.541Z,29.20
2022-08-28T17:04:26.825Z,29.07
2022-08-28T17:07:30.546Z,29.00
2022-08-28T17:10:34.782Z,28.98
2022-08-28T17:13:37.901Z,28.93
2022-08-28T17:16:40.635Z,28.85
2022-08-28T17:19:43.191Z,28.76
2022-08-28T17:22:45.680Z,28.69
2022-08-28T17:25:48.635Z,28.64
2022-08-28T17:28:51.842Z,28.57
2022-08-28T17:31:54.862Z,28.48
2022-08-28T17:34:57.514Z,28.41
2022-08-28T17:38:00.206Z,28.32
2022-08-28T17:41:06.315Z,28.32
2022-08-28T17:44:09.130Z,28.26
2022-08-28T17:47:12.070Z,28.15
2022-08-28T17:50:14.583Z,28.11
2022-08-28T17:53:18.070Z,28.06
2022-08-28T17:56:20.952Z,28.04
2022-08-28T17:59:38.479Z,27.97
2022-08-28T18:02:40.987Z,27.95
2022-08-28T18:05:43.767Z,27.92
2022-08-28T18:08:47.823Z,27.81
2022-08-28T18:11:51.822Z,27.80
2022-08-28T18:14:54.595Z,27.79
2022-08-28T18:17:57.934Z,27.78
2022-08-28T18:21:01.647Z,27.75
2022-08-28T18:24:04.947Z,27.71
2022-08-28T18:27:08.239Z,27.71
2022-08-28T18:30:11.264Z,27.68
2022-08-28T18:33:14.860Z,27.68
2022-08-28T18:36:17.784Z,27.68
2022-08-28T18:39:29.905Z,27.68
2022-08-28T18:42:32.678Z,27.66
2022-08-28T18:45:35.803Z,27.66
2022-08-28T18:48:38.474Z,27.62
2022-08-28T18:51:41.775Z,27.60
2022-08-28T18:54:45.251Z,27.65
2022-08-28T18:57:48.936Z,27.58
2022-08-28T19:00:54.436Z,27.55
2022-08-28T19:03:57.624Z,27.53
2022-08-28T19:07:00.173Z,27.51
2022-08-28T19:10:03.679Z,27.49
2022-08-28T19:13:07.139Z,27.48
2022-08-28T19:16:10.283Z,27.47
2022-08-28T19:19:13.002Z,27.44
2022-08-28T19:22:15.540Z,27.42
2022-08-28T19:25:27.998Z,27.37
2022-08-28T19:28:31.583Z,27.38
2022-08-28T19:31:34.161Z,27.31
2022-08-28T19:34:36.716Z,27.30
2022-08-28T19:37:42.588Z,27.23
2022-08-28T19:40:45.819Z,27.23
2022-08-28T19:43:48.925Z,27.18
2022-08-28T19:46:51.707Z,27.14
2022-08-28T19:49:55.054Z,27.09
2022-08-28T19:52:59.768Z,27.05
2022-08-28T19:56:03.064Z,26.97
2022-08-28T19:59:07.462Z,26.93
2022-08-28T20:02:10.489Z,26.88
2022-08-28T20:05:14.608Z,26.85
2022-08-28T20:08:17.965Z,26.82
2022-08-28T20:11:25.162Z,26.76
2022-08-28T20:14:28.046Z,26.74
2022-08-28T20:17:31.568Z,26.71
2022-08-28T20:20:34.122Z,26.68
2022-08-28T20:23:37.068Z,26.67
2022-08-28T20:26:39.881Z,26.61
2022-08-28T20:29:42.871Z,26.58
2022-08-28T20:32:45.507Z,26.55
2022-08-28T20:35:48.434Z,26.50
2022-08-28T20:38:51.059Z,26.47
2022-08-28T20:41:54.184Z,26.42
2022-08-28T20:44:57.045Z,26.38
2022-08-28T20:47:59.815Z,26.39
2022-08-28T20:51:02.321Z,26.32
2022-08-28T20:54:05.079Z,26.29
2022-08-28T20:57:09.314Z,26.20
2022-08-28T21:00:12.878Z,26.17
2022-08-28T21:03:15.691Z,26.18
2022-08-28T21:06:18.439Z,26.12
2022-08-28T21:09:22.956Z,26.10
2022-08-28T21:12:43.923Z,26.04
2022-08-28T21:15:46.929Z,25.98
2022-08-28T21:19:14.458Z,25.98
2022-08-28T21:22:13.104Z,25.91
2022-08-28T21:25:20.406Z,25.89
2022-08-28T21:28:22.756Z,25.84
2022-08-28T21:31:25.594Z,25.82
2022-08-28T21:34:27.869Z,25.79
2022-08-28T21:37:31.219Z,25.77
2022-08-28T21:40:35.646Z,25.75
2022-08-28T21:43:38.935Z,25.76
2022-08-28T21:46:42.068Z,25.69
2022-08-28T21:49:47.428Z,25.68
2022-08-28T21:52:49.810Z,25.65
2022-08-28T21:55:53.918Z,25.64
2022-08-28T21:58:56.604Z,25.61
2022-08-28T22:01:59.509Z,25.65
2022-08-28T22:05:02.042Z,25.64
2022-08-28T22:08:05.106Z,25.63
2022-08-28T22:11:08.413Z,25.60
2022-08-28T22:14:11.121Z,25.58
2022-08-28T22:17:15.095Z,25.58
2022-08-28T22:20:17.643Z,25.56
2022-08-28T22:23:20.468Z,25.60
2022-08-28T22:26:22.887Z,25.47
2022-08-28T22:29:25.639Z,25.42
2022-08-28T22:32:28.127Z,25.40
2022-08-28T22:35:30.730Z,25.34
2022-08-28T22:38:33.630Z,25.35
2022-08-28T22:41:37.436Z,25.35
2022-08-28T22:44:39.957Z,25.26
2022-08-28T22:47:42.476Z,25.19
2022-08-28T22:50:45.925Z,25.14
2022-08-28T22:53:48.718Z,25.09
2022-08-28T22:56:51.277Z,25.07
2022-08-28T22:59:54.011Z,25.03
2022-08-28T23:02:57.076Z,25.01
2022-08-28T23:05:59.628Z,25.02
2022-08-28T23:09:02.071Z,24.94
2022-08-28T23:12:05.193Z,24.89
2022-08-28T23:15:09.951Z,24.86
2022-08-28T23:18:12.774Z,24.84
2022-08-28T23:21:15.687Z,24.77
2022-08-28T23:24:21.572Z,24.75
2022-08-28T23:27:39.473Z,24.71
2022-08-28T23:30:48.302Z,24.69
2022-08-28T23:33:51.269Z,24.65
2022-08-28T23:36:54.141Z,24.64
2022-08-28T23:39:56.614Z,24.59
2022-08-28T23:43:00.610Z,24.58
2022-08-28T23:46:03.451Z,24.65
2022-08-28T23:49:07.414Z,24.53
2022-08-28T23:52:10.221Z,24.53
2022-08-28T23:55:13.782Z,24.50
2022-08-28T23:58:16.677Z,24.48
